Aldrich, MN

12:39 AM CDT on August 30, 2014 (GMT -0500)
Staples Municipal | Change Station
CLOSE
Current Station
Airport
Location: Staples,
Elevation: 1286 ft
Nearby Weather Stations

Elev 1286 ft 46.38 °N, 94.81 °W | Updated 6 minutes ago

Mostly Cloudy
Mostly Cloudy
64 °F
Feels Like 64 °F
N
4
Wind Variable Wind from North

Today
High -- | Low -- °F
--% Chance of Precip.
Yesterday
High -- | Low -- °F
Precip. -- in
6:37 AM 8:02 PM
Waxing Crescent, 19% visible
Pressure 29.81 in
Visibility 10.0 miles
Clouds Scattered Clouds 3600 ft
Mostly Cloudy 5000 ft
Dew Point 63 °F
Humidity 94%
Rainfall 0.00 in
Snow Depth Not available.
UV 0 out of 12
Pollen 8.30 out of 12
Air Quality Not available.
Flu Activity Not available.
METAR KSAZ 300533Z AUTO 35003KT 10SM SCT036 BKN050 18/17 A2981 RMK AO2

More Conditions Fewer Conditions

Pressure 29.81 in
Visibility 10.0 miles
Clouds Scattered Clouds 3600 ft
Mostly Cloudy 5000 ft
Dew Point 63 °F
Humidity 94%
Rainfall 0.00 in
Snow Depth Not available.
UV 0 out of 12
Pollen 8.30 out of 12
Air Quality Not available.
Flu Activity Not available.
METAR KSAZ 300533Z AUTO 35003KT 10SM SCT036 BKN050 18/17 A2981 RMK AO2

More Conditions Fewer Conditions

10-Day Weather Forecast

Almanac

Astronomy

Aug. 30, 2014 Rise Set
Actual Time 6:37 AM CDT 8:02 PM CDT
Civil Twilight 6:06 AM CDT 8:33 PM CDT
Nautical Twilight 5:28 AM CDT 9:11 PM CDT
Astronomical Twilight 4:47 AM CDT 9:51 PM CDT
Moon 11:44 AM CDT 10:17 PM CDT
Length of Visible Light 14h 27m
Length of Day
13h 24m
Tomorrow will be 3m 9s shorter.
Waxing Crescent, 19% of the Moon is Illuminated
Today
Waxing Crescent
Sep 2
First Quarter
Sep 8
Full
Sep 15
Last Quarter
Sep 24
New

Today's Extremes

State Highs State Lows

Community

WunderPhotos

Upload Photos

1,748,467 photos uploaded!

Nearby

Snow Depth

Station Depth Elevation
No new snow has been reported.

Earthquake Activity

City Distance Mag. Time & Date
No recent earthquake activity has been reported nearby.
Minimum magnitude displayed is 2.5.

Coastal Water Temperatures

Place Temperature
No Stations Reporting

Nearby Weather Stations